Faust, Canada
Current Conditions -  °F | °C
As of 2:51 PM on Saturday 22 Nov 2014 (Local Time) from CYZH Reporting Station
Light Snow Light Snow  
Wind Chill: 15°   Ceiling: 2600
Heat Index: 21°   Visibility: 4mi
Dew Point: 19°   Wind: 5mph
Humidity: 93%   Direction: 290°WNW
Pressure: 29.43"   Gusts: NA
Location:  55.32°N, 115.72°W
Report Text: CYZH 222151Z AUTO 29004KT 4SM -SN SCT018 OVC026 M06/M07 A2943 RMK SLP997
Loading
Personal Weather Stations






























Interactive Weather Map New forecast layout! Learn more

10-Day Weather Forecast

Advertisements
Track Severe Weather on mobile